Stockdale, Ohio
Current Conditions -  °F | °C
As of 12:15 AM on Saturday 25 Oct 2014 (Local Time) from KDWU Reporting Station
Clear Clear  
Wind Chill: 45°   Ceiling: Unl
Heat Index: 45°   Visibility: 9mi
Dew Point: 39°   Wind: 0mph
Humidity: 81%   Direction: NA
Pressure: 30.04"   Gusts: NA
Location:  38.96°N, 82.86°W
Report Text: KDWU 250415Z AUTO 00000KT 9SM CLR 07/04 A3004 RMK AO1
Loading
Personal Weather Stations






























Interactive Weather Map
Tropical Storm Tracking
New forecast layout! Learn more

10-Day Weather Forecast

Advertisements
Track Severe Weather on mobile